sensor_id;sensor_type;location;lat;lon;timestamp;P1;durP1;ratioP1;P2;durP2;ratioP2
10701;SDS011;5402;50.004;8.246;2022-10-15T00:00:09;0.00;;;0.00;;
10701;SDS011;5402;50.004;8.246;2022-10-15T00:02:36;0.00;;;0.00;;
10701;SDS011;5402;50.004;8.246;2022-10-15T00:05:03;0.00;;;0.00;;
10701;SDS011;5402;50.004;8.246;2022-10-15T00:07:30;0.00;;;0.00;;
10701;SDS011;5402;50.004;8.246;2022-10-15T00:09:57;0.00;;;0.00;;
10701;SDS011;5402;50.004;8.246;2022-10-15T00:12:23;0.00;;;0.00;;
10701;SDS011;5402;50.004;8.246;2022-10-15T00:14:50;0.00;;;0.00;;
10701;SDS011;5402;50.004;8.246;2022-10-15T00:17:18;0.00;;;0.00;;
10701;SDS011;5402;50.004;8.246;2022-10-15T00:19:45;0.00;;;0.00;;
10701;SDS011;5402;50.004;8.246;2022-10-15T00:22:12;0.00;;;0.00;;
10701;SDS011;5402;50.004;8.246;2022-10-15T00:24:38;0.00;;;0.00;;
10701;SDS011;5402;50.004;8.246;2022-10-15T00:27:05;0.00;;;0.00;;
10701;SDS011;5402;50.004;8.246;2022-10-15T00:29:32;0.00;;;0.00;;
10701;SDS011;5402;50.004;8.246;2022-10-15T00:31:59;0.00;;;0.00;;
10701;SDS011;5402;50.004;8.246;2022-10-15T00:34:27;0.00;;;0.00;;
10701;SDS011;5402;50.004;8.246;2022-10-15T00:36:54;0.00;;;0.00;;
10701;SDS011;5402;50.004;8.246;2022-10-15T00:39:21;0.00;;;0.00;;
10701;SDS011;5402;50.004;8.246;2022-10-15T00:41:48;0.00;;;0.00;;
10701;SDS011;5402;50.004;8.246;2022-10-15T00:47:12;0.00;;;0.00;;
10701;SDS011;5402;50.004;8.246;2022-10-15T00:49:44;0.00;;;0.00;;
10701;SDS011;5402;50.004;8.246;2022-10-15T00:52:16;0.00;;;0.00;;
10701;SDS011;5402;50.004;8.246;2022-10-15T00:54:47;0.00;;;0.00;;
10701;SDS011;5402;50.004;8.246;2022-10-15T00:57:16;0.00;;;0.00;;
10701;SDS011;5402;50.004;8.246;2022-10-15T00:59:45;0.00;;;0.00;;
10701;SDS011;5402;50.004;8.246;2022-10-15T01:02:15;0.00;;;0.00;;
10701;SDS011;5402;50.004;8.246;2022-10-15T01:04:45;0.00;;;0.00;;
10701;SDS011;5402;50.004;8.246;2022-10-15T01:07:12;0.00;;;0.00;;
10701;SDS011;5402;50.004;8.246;2022-10-15T01:09:39;0.00;;;0.00;;
10701;SDS011;5402;50.004;8.246;2022-10-15T01:12:07;0.00;;;0.00;;
10701;SDS011;5402;50.004;8.246;2022-10-15T01:14:43;0.00;;;0.00;;
10701;SDS011;5402;50.004;8.246;2022-10-15T01:17:18;0.00;;;0.00;;
10701;SDS011;5402;50.004;8.246;2022-10-15T01:22:53;0.00;;;0.00;;
10701;SDS011;5402;50.004;8.246;2022-10-15T01:25:33;0.00;;;0.00;;
10701;SDS011;5402;50.004;8.246;2022-10-15T01:28:12;0.00;;;0.00;;
10701;SDS011;5402;50.004;8.246;2022-10-15T01:30:48;0.00;;;0.00;;
10701;SDS011;5402;50.004;8.246;2022-10-15T01:33:25;0.00;;;0.00;;
10701;SDS011;5402;50.004;8.246;2022-10-15T01:36:01;0.00;;;0.00;;
10701;SDS011;5402;50.004;8.246;2022-10-15T01:38:38;0.00;;;0.00;;
10701;SDS011;5402;50.004;8.246;2022-10-15T01:41:17;0.00;;;0.00;;
10701;SDS011;5402;50.004;8.246;2022-10-15T01:43:54;0.00;;;0.00;;
10701;SDS011;5402;50.004;8.246;2022-10-15T01:46:26;0.00;;;0.00;;
10701;SDS011;5402;50.004;8.246;2022-10-15T01:48:57;0.00;;;0.00;;
10701;SDS011;5402;50.004;8.246;2022-10-15T01:51:27;0.00;;;0.00;;
10701;SDS011;5402;50.004;8.246;2022-10-15T01:53:58;0.00;;;0.00;;
10701;SDS011;5402;50.004;8.246;2022-10-15T01:56:26;0.00;;;0.00;;
10701;SDS011;5402;50.004;8.246;2022-10-15T01:58:54;0.00;;;0.00;;
10701;SDS011;5402;50.004;8.246;2022-10-15T02:01:22;0.00;;;0.00;;
10701;SDS011;5402;50.004;8.246;2022-10-15T02:03:51;0.00;;;0.00;;
10701;SDS011;5402;50.004;8.246;2022-10-15T02:06:20;0.00;;;0.00;;
10701;SDS011;5402;50.004;8.246;2022-10-15T02:08:56;0.00;;;0.00;;
10701;SDS011;5402;50.004;8.246;2022-10-15T02:11:39;0.00;;;0.00;;
10701;SDS011;5402;50.004;8.246;2022-10-15T02:14:17;0.00;;;0.00;;
10701;SDS011;5402;50.004;8.246;2022-10-15T02:16:53;0.00;;;0.00;;
10701;SDS011;5402;50.004;8.246;2022-10-15T02:19:28;0.00;;;0.00;;
10701;SDS011;5402;50.004;8.246;2022-10-15T02:21:58;0.00;;;0.00;;
10701;SDS011;5402;50.004;8.246;2022-10-15T02:24:31;0.00;;;0.00;;
10701;SDS011;5402;50.004;8.246;2022-10-15T02:27:02;0.00;;;0.00;;
10701;SDS011;5402;50.004;8.246;2022-10-15T02:29:31;0.00;;;0.00;;
10701;SDS011;5402;50.004;8.246;2022-10-15T02:32:00;0.00;;;0.00;;
10701;SDS011;5402;50.004;8.246;2022-10-15T02:34:32;0.00;;;0.00;;
10701;SDS011;5402;50.004;8.246;2022-10-15T02:37:02;0.00;;;0.00;;
10701;SDS011;5402;50.004;8.246;2022-10-15T02:39:31;0.43;;;0.43;;
10701;SDS011;5402;50.004;8.246;2022-10-15T02:41:59;0.00;;;0.00;;
10701;SDS011;5402;50.004;8.246;2022-10-15T02:44:26;0.00;;;0.00;;
10701;SDS011;5402;50.004;8.246;2022-10-15T02:46:53;0.00;;;0.00;;
10701;SDS011;5402;50.004;8.246;2022-10-15T02:49:20;0.00;;;0.00;;
10701;SDS011;5402;50.004;8.246;2022-10-15T02:51:48;0.00;;;0.00;;
10701;SDS011;5402;50.004;8.246;2022-10-15T02:54:15;0.00;;;0.00;;
10701;SDS011;5402;50.004;8.246;2022-10-15T02:56:42;0.00;;;0.00;;
10701;SDS011;5402;50.004;8.246;2022-10-15T02:59:09;0.00;;;0.00;;
10701;SDS011;5402;50.004;8.246;2022-10-15T03:01:35;0.00;;;0.00;;
10701;SDS011;5402;50.004;8.246;2022-10-15T03:04:02;0.00;;;0.00;;
10701;SDS011;5402;50.004;8.246;2022-10-15T03:06:29;0.00;;;0.00;;
10701;SDS011;5402;50.004;8.246;2022-10-15T03:08:57;0.00;;;0.00;;
10701;SDS011;5402;50.004;8.246;2022-10-15T03:11:24;0.10;;;0.10;;
10701;SDS011;5402;50.004;8.246;2022-10-15T03:13:51;0.00;;;0.00;;
10701;SDS011;5402;50.004;8.246;2022-10-15T03:16:17;0.00;;;0.00;;
10701;SDS011;5402;50.004;8.246;2022-10-15T03:18:44;0.00;;;0.00;;
10701;SDS011;5402;50.004;8.246;2022-10-15T03:21:11;0.00;;;0.00;;
10701;SDS011;5402;50.004;8.246;2022-10-15T03:23:37;0.00;;;0.00;;
10701;SDS011;5402;50.004;8.246;2022-10-15T03:26:06;0.00;;;0.00;;
10701;SDS011;5402;50.004;8.246;2022-10-15T03:28:33;0.00;;;0.00;;
10701;SDS011;5402;50.004;8.246;2022-10-15T03:30:59;0.00;;;0.00;;
10701;SDS011;5402;50.004;8.246;2022-10-15T03:33:26;0.00;;;0.00;;
10701;SDS011;5402;50.004;8.246;2022-10-15T03:35:54;0.10;;;0.10;;
10701;SDS011;5402;50.004;8.246;2022-10-15T03:38:21;0.00;;;0.00;;
10701;SDS011;5402;50.004;8.246;2022-10-15T03:40:48;0.00;;;0.00;;
10701;SDS011;5402;50.004;8.246;2022-10-15T03:43:16;0.93;;;0.93;;
10701;SDS011;5402;50.004;8.246;2022-10-15T03:45:42;0.00;;;0.00;;
10701;SDS011;5402;50.004;8.246;2022-10-15T03:48:09;0.00;;;0.00;;
10701;SDS011;5402;50.004;8.246;2022-10-15T03:50:36;0.00;;;0.00;;
10701;SDS011;5402;50.004;8.246;2022-10-15T03:53:03;0.00;;;0.00;;
10701;SDS011;5402;50.004;8.246;2022-10-15T03:55:30;0.00;;;0.00;;
10701;SDS011;5402;50.004;8.246;2022-10-15T03:57:57;0.00;;;0.00;;
10701;SDS011;5402;50.004;8.246;2022-10-15T04:00:26;0.00;;;0.00;;
10701;SDS011;5402;50.004;8.246;2022-10-15T04:02:53;0.00;;;0.00;;
10701;SDS011;5402;50.004;8.246;2022-10-15T04:05:19;0.00;;;0.00;;
10701;SDS011;5402;50.004;8.246;2022-10-15T04:07:46;0.00;;;0.00;;
10701;SDS011;5402;50.004;8.246;2022-10-15T04:10:13;0.30;;;0.30;;
10701;SDS011;5402;50.004;8.246;2022-10-15T04:12:40;0.00;;;0.00;;
10701;SDS011;5402;50.004;8.246;2022-10-15T04:15:07;0.00;;;0.00;;
10701;SDS011;5402;50.004;8.246;2022-10-15T04:17:35;0.00;;;0.00;;
10701;SDS011;5402;50.004;8.246;2022-10-15T04:20:02;0.00;;;0.00;;
10701;SDS011;5402;50.004;8.246;2022-10-15T04:22:29;0.00;;;0.00;;
10701;SDS011;5402;50.004;8.246;2022-10-15T04:24:56;0.00;;;0.00;;
10701;SDS011;5402;50.004;8.246;2022-10-15T04:27:23;0.00;;;0.00;;
10701;SDS011;5402;50.004;8.246;2022-10-15T04:29:50;0.00;;;0.00;;
10701;SDS011;5402;50.004;8.246;2022-10-15T04:32:17;0.00;;;0.00;;
10701;SDS011;5402;50.004;8.246;2022-10-15T04:34:45;0.00;;;0.00;;
10701;SDS011;5402;50.004;8.246;2022-10-15T04:37:12;0.00;;;0.00;;
10701;SDS011;5402;50.004;8.246;2022-10-15T04:39:39;0.00;;;0.00;;
10701;SDS011;5402;50.004;8.246;2022-10-15T04:42:06;0.50;;;0.50;;
10701;SDS011;5402;50.004;8.246;2022-10-15T04:44:32;0.00;;;0.00;;
10701;SDS011;5402;50.004;8.246;2022-10-15T04:46:59;0.10;;;0.10;;
10701;SDS011;5402;50.004;8.246;2022-10-15T04:49:27;0.00;;;0.00;;
10701;SDS011;5402;50.004;8.246;2022-10-15T04:51:55;0.00;;;0.00;;
10701;SDS011;5402;50.004;8.246;2022-10-15T04:54:21;0.00;;;0.00;;
10701;SDS011;5402;50.004;8.246;2022-10-15T04:56:48;0.00;;;0.00;;
10701;SDS011;5402;50.004;8.246;2022-10-15T04:59:15;0.00;;;0.00;;
10701;SDS011;5402;50.004;8.246;2022-10-15T05:01:42;0.00;;;0.00;;
10701;SDS011;5402;50.004;8.246;2022-10-15T05:04:09;0.00;;;0.00;;
10701;SDS011;5402;50.004;8.246;2022-10-15T05:06:37;0.00;;;0.00;;
10701;SDS011;5402;50.004;8.246;2022-10-15T05:09:05;0.00;;;0.00;;
10701;SDS011;5402;50.004;8.246;2022-10-15T05:11:34;0.23;;;0.23;;
10701;SDS011;5402;50.004;8.246;2022-10-15T05:14:02;0.00;;;0.00;;
10701;SDS011;5402;50.004;8.246;2022-10-15T05:16:29;0.00;;;0.00;;
10701;SDS011;5402;50.004;8.246;2022-10-15T05:18:56;0.00;;;0.00;;
10701;SDS011;5402;50.004;8.246;2022-10-15T05:21:24;0.00;;;0.00;;
10701;SDS011;5402;50.004;8.246;2022-10-15T05:23:51;0.00;;;0.00;;
10701;SDS011;5402;50.004;8.246;2022-10-15T05:26:20;0.00;;;0.00;;
10701;SDS011;5402;50.004;8.246;2022-10-15T05:28:47;0.00;;;0.00;;
10701;SDS011;5402;50.004;8.246;2022-10-15T05:31:16;0.00;;;0.00;;
10701;SDS011;5402;50.004;8.246;2022-10-15T05:33:44;0.00;;;0.00;;
10701;SDS011;5402;50.004;8.246;2022-10-15T05:36:11;0.00;;;0.00;;
10701;SDS011;5402;50.004;8.246;2022-10-15T05:38:41;0.00;;;0.00;;
10701;SDS011;5402;50.004;8.246;2022-10-15T05:41:08;0.00;;;0.00;;
10701;SDS011;5402;50.004;8.246;2022-10-15T05:43:36;0.00;;;0.00;;
10701;SDS011;5402;50.004;8.246;2022-10-15T05:46:03;0.63;;;0.63;;
10701;SDS011;5402;50.004;8.246;2022-10-15T05:48:30;0.00;;;0.00;;
10701;SDS011;5402;50.004;8.246;2022-10-15T05:51:00;0.00;;;0.00;;
10701;SDS011;5402;50.004;8.246;2022-10-15T05:53:27;0.00;;;0.00;;
10701;SDS011;5402;50.004;8.246;2022-10-15T05:55:54;0.00;;;0.00;;
10701;SDS011;5402;50.004;8.246;2022-10-15T05:58:22;0.00;;;0.00;;
10701;SDS011;5402;50.004;8.246;2022-10-15T06:00:53;0.00;;;0.00;;
10701;SDS011;5402;50.004;8.246;2022-10-15T06:03:20;0.00;;;0.00;;
10701;SDS011;5402;50.004;8.246;2022-10-15T06:05:46;0.00;;;0.00;;
10701;SDS011;5402;50.004;8.246;2022-10-15T06:08:13;0.00;;;0.00;;
10701;SDS011;5402;50.004;8.246;2022-10-15T06:10:40;0.00;;;0.00;;
10701;SDS011;5402;50.004;8.246;2022-10-15T06:13:07;0.00;;;0.00;;
10701;SDS011;5402;50.004;8.246;2022-10-15T06:15:37;0.00;;;0.00;;
10701;SDS011;5402;50.004;8.246;2022-10-15T06:18:06;0.00;;;0.00;;
10701;SDS011;5402;50.004;8.246;2022-10-15T06:20:33;0.00;;;0.00;;
10701;SDS011;5402;50.004;8.246;2022-10-15T06:22:59;0.00;;;0.00;;
10701;SDS011;5402;50.004;8.246;2022-10-15T06:25:26;0.00;;;0.00;;
10701;SDS011;5402;50.004;8.246;2022-10-15T06:27:54;0.00;;;0.00;;
10701;SDS011;5402;50.004;8.246;2022-10-15T06:30:21;0.00;;;0.00;;
10701;SDS011;5402;50.004;8.246;2022-10-15T06:32:48;0.00;;;0.00;;
10701;SDS011;5402;50.004;8.246;2022-10-15T06:35:16;0.00;;;0.00;;
10701;SDS011;5402;50.004;8.246;2022-10-15T06:37:45;0.00;;;0.00;;
10701;SDS011;5402;50.004;8.246;2022-10-15T06:40:12;0.00;;;0.00;;
10701;SDS011;5402;50.004;8.246;2022-10-15T06:42:39;0.00;;;0.00;;
10701;SDS011;5402;50.004;8.246;2022-10-15T06:45:07;0.00;;;0.00;;
10701;SDS011;5402;50.004;8.246;2022-10-15T06:47:35;0.00;;;0.00;;
10701;SDS011;5402;50.004;8.246;2022-10-15T06:50:03;0.00;;;0.00;;
10701;SDS011;5402;50.004;8.246;2022-10-15T06:52:32;0.00;;;0.00;;
10701;SDS011;5402;50.004;8.246;2022-10-15T06:54:59;0.10;;;0.10;;
10701;SDS011;5402;50.004;8.246;2022-10-15T06:57:26;0.00;;;0.00;;
10701;SDS011;5402;50.004;8.246;2022-10-15T06:59:53;0.00;;;0.00;;
10701;SDS011;5402;50.004;8.246;2022-10-15T07:02:20;0.00;;;0.00;;
10701;SDS011;5402;50.004;8.246;2022-10-15T07:04:47;0.00;;;0.00;;
10701;SDS011;5402;50.004;8.246;2022-10-15T07:07:14;0.00;;;0.00;;
10701;SDS011;5402;50.004;8.246;2022-10-15T07:09:42;0.00;;;0.00;;
10701;SDS011;5402;50.004;8.246;2022-10-15T07:12:10;0.00;;;0.00;;
10701;SDS011;5402;50.004;8.246;2022-10-15T07:14:37;0.00;;;0.00;;
10701;SDS011;5402;50.004;8.246;2022-10-15T07:17:04;0.00;;;0.00;;
10701;SDS011;5402;50.004;8.246;2022-10-15T07:19:30;0.00;;;0.00;;
10701;SDS011;5402;50.004;8.246;2022-10-15T07:21:57;0.00;;;0.00;;
10701;SDS011;5402;50.004;8.246;2022-10-15T07:24:24;0.00;;;0.00;;
10701;SDS011;5402;50.004;8.246;2022-10-15T07:26:52;0.00;;;0.00;;
10701;SDS011;5402;50.004;8.246;2022-10-15T07:29:19;0.00;;;0.00;;
10701;SDS011;5402;50.004;8.246;2022-10-15T07:31:45;0.00;;;0.00;;
10701;SDS011;5402;50.004;8.246;2022-10-15T07:34:12;0.00;;;0.00;;
10701;SDS011;5402;50.004;8.246;2022-10-15T07:36:39;0.00;;;0.00;;
10701;SDS011;5402;50.004;8.246;2022-10-15T07:39:06;0.00;;;0.00;;
10701;SDS011;5402;50.004;8.246;2022-10-15T07:41:33;0.00;;;0.00;;
10701;SDS011;5402;50.004;8.246;2022-10-15T07:44:02;0.00;;;0.00;;
10701;SDS011;5402;50.004;8.246;2022-10-15T07:46:28;0.00;;;0.00;;
10701;SDS011;5402;50.004;8.246;2022-10-15T07:48:55;0.00;;;0.00;;
10701;SDS011;5402;50.004;8.246;2022-10-15T07:51:22;0.00;;;0.00;;
10701;SDS011;5402;50.004;8.246;2022-10-15T07:53:48;0.00;;;0.00;;
10701;SDS011;5402;50.004;8.246;2022-10-15T07:56:15;0.00;;;0.00;;
10701;SDS011;5402;50.004;8.246;2022-10-15T07:58:43;0.00;;;0.00;;
10701;SDS011;5402;50.004;8.246;2022-10-15T08:01:17;0.00;;;0.00;;
10701;SDS011;5402;50.004;8.246;2022-10-15T08:03:45;0.00;;;0.00;;
10701;SDS011;5402;50.004;8.246;2022-10-15T08:06:12;0.00;;;0.00;;
10701;SDS011;5402;50.004;8.246;2022-10-15T08:08:39;0.00;;;0.00;;
10701;SDS011;5402;50.004;8.246;2022-10-15T08:11:06;0.10;;;0.10;;
10701;SDS011;5402;50.004;8.246;2022-10-15T08:13:33;0.00;;;0.00;;
10701;SDS011;5402;50.004;8.246;2022-10-15T08:16:01;0.00;;;0.00;;
10701;SDS011;5402;50.004;8.246;2022-10-15T08:18:29;0.00;;;0.00;;
10701;SDS011;5402;50.004;8.246;2022-10-15T08:20:57;0.00;;;0.00;;
10701;SDS011;5402;50.004;8.246;2022-10-15T08:23:25;0.00;;;0.00;;
10701;SDS011;5402;50.004;8.246;2022-10-15T08:25:52;0.00;;;0.00;;
10701;SDS011;5402;50.004;8.246;2022-10-15T08:28:19;0.00;;;0.00;;
10701;SDS011;5402;50.004;8.246;2022-10-15T08:30:45;1.20;;;1.20;;
10701;SDS011;5402;50.004;8.246;2022-10-15T08:33:12;0.00;;;0.00;;
10701;SDS011;5402;50.004;8.246;2022-10-15T08:35:41;0.00;;;0.00;;
10701;SDS011;5402;50.004;8.246;2022-10-15T08:38:08;0.00;;;0.00;;
10701;SDS011;5402;50.004;8.246;2022-10-15T08:40:35;0.00;;;0.00;;
10701;SDS011;5402;50.004;8.246;2022-10-15T08:43:02;0.00;;;0.00;;
10701;SDS011;5402;50.004;8.246;2022-10-15T08:45:31;0.00;;;0.00;;
10701;SDS011;5402;50.004;8.246;2022-10-15T08:48:04;0.00;;;0.00;;
10701;SDS011;5402;50.004;8.246;2022-10-15T08:50:35;0.00;;;0.00;;
10701;SDS011;5402;50.004;8.246;2022-10-15T08:53:07;0.00;;;0.00;;
10701;SDS011;5402;50.004;8.246;2022-10-15T08:55:38;0.00;;;0.00;;
10701;SDS011;5402;50.004;8.246;2022-10-15T08:58:10;0.00;;;0.00;;
10701;SDS011;5402;50.004;8.246;2022-10-15T09:00:42;0.00;;;0.00;;
10701;SDS011;5402;50.004;8.246;2022-10-15T09:03:19;0.00;;;0.00;;
10701;SDS011;5402;50.004;8.246;2022-10-15T09:05:56;0.00;;;0.00;;
10701;SDS011;5402;50.004;8.246;2022-10-15T09:08:31;0.00;;;0.00;;
10701;SDS011;5402;50.004;8.246;2022-10-15T09:11:06;0.00;;;0.00;;
10701;SDS011;5402;50.004;8.246;2022-10-15T09:13:39;0.00;;;0.00;;
10701;SDS011;5402;50.004;8.246;2022-10-15T09:16:09;0.00;;;0.00;;
10701;SDS011;5402;50.004;8.246;2022-10-15T09:18:40;1.03;;;0.90;;
10701;SDS011;5402;50.004;8.246;2022-10-15T09:21:09;1.13;;;1.10;;
10701;SDS011;5402;50.004;8.246;2022-10-15T09:23:39;1.40;;;1.10;;
10701;SDS011;5402;50.004;8.246;2022-10-15T09:26:08;3.80;;;1.00;;
10701;SDS011;5402;50.004;8.246;2022-10-15T09:28:46;1.20;;;1.10;;
10701;SDS011;5402;50.004;8.246;2022-10-15T09:31:33;1.23;;;1.13;;
10701;SDS011;5402;50.004;8.246;2022-10-15T09:34:06;1.57;;;1.30;;
10701;SDS011;5402;50.004;8.246;2022-10-15T09:36:40;1.63;;;1.37;;
10701;SDS011;5402;50.004;8.246;2022-10-15T09:39:23;1.67;;;1.57;;
10701;SDS011;5402;50.004;8.246;2022-10-15T09:42:07;2.67;;;2.33;;
10701;SDS011;5402;50.004;8.246;2022-10-15T09:44:43;3.13;;;2.60;;
10701;SDS011;5402;50.004;8.246;2022-10-15T09:47:16;2.60;;;2.07;;
10701;SDS011;5402;50.004;8.246;2022-10-15T09:49:48;1.83;;;1.70;;
10701;SDS011;5402;50.004;8.246;2022-10-15T09:52:16;2.33;;;2.13;;
10701;SDS011;5402;50.004;8.246;2022-10-15T09:54:54;5.77;;;3.80;;
10701;SDS011;5402;50.004;8.246;2022-10-15T09:57:28;3.03;;;2.47;;
10701;SDS011;5402;50.004;8.246;2022-10-15T09:59:59;3.77;;;2.70;;
10701;SDS011;5402;50.004;8.246;2022-10-15T10:02:27;4.73;;;2.97;;
10701;SDS011;5402;50.004;8.246;2022-10-15T10:04:54;4.43;;;2.80;;
10701;SDS011;5402;50.004;8.246;2022-10-15T10:07:29;2.60;;;2.40;;
10701;SDS011;5402;50.004;8.246;2022-10-15T10:09:59;3.50;;;2.87;;
10701;SDS011;5402;50.004;8.246;2022-10-15T10:12:30;3.00;;;2.67;;
10701;SDS011;5402;50.004;8.246;2022-10-15T10:14:59;3.53;;;2.50;;
10701;SDS011;5402;50.004;8.246;2022-10-15T10:17:30;2.83;;;2.53;;
10701;SDS011;5402;50.004;8.246;2022-10-15T10:22:46;3.63;;;2.73;;
10701;SDS011;5402;50.004;8.246;2022-10-15T10:25:28;2.08;;;1.88;;
10701;SDS011;5402;50.004;8.246;2022-10-15T10:27:58;2.60;;;2.07;;
10701;SDS011;5402;50.004;8.246;2022-10-15T10:30:31;2.37;;;1.87;;
10701;SDS011;5402;50.004;8.246;2022-10-15T10:33:01;2.17;;;1.90;;
10701;SDS011;5402;50.004;8.246;2022-10-15T10:35:31;2.77;;;1.87;;
10701;SDS011;5402;50.004;8.246;2022-10-15T10:38:01;2.30;;;1.70;;
10701;SDS011;5402;50.004;8.246;2022-10-15T10:40:31;1.73;;;1.63;;
10701;SDS011;5402;50.004;8.246;2022-10-15T10:43:10;2.10;;;1.90;;
10701;SDS011;5402;50.004;8.246;2022-10-15T10:45:51;2.27;;;1.70;;
10701;SDS011;5402;50.004;8.246;2022-10-15T10:48:20;2.43;;;1.40;;
10701;SDS011;5402;50.004;8.246;2022-10-15T10:50:50;2.90;;;2.60;;
10701;SDS011;5402;50.004;8.246;2022-10-15T10:53:28;1.83;;;1.73;;
10701;SDS011;5402;50.004;8.246;2022-10-15T10:55:56;2.33;;;2.00;;
10701;SDS011;5402;50.004;8.246;2022-10-15T10:58:26;5.30;;;1.83;;
10701;SDS011;5402;50.004;8.246;2022-10-15T11:00:57;1.90;;;1.80;;
10701;SDS011;5402;50.004;8.246;2022-10-15T11:03:29;2.17;;;1.67;;
10701;SDS011;5402;50.004;8.246;2022-10-15T11:06:00;1.70;;;1.60;;
10701;SDS011;5402;50.004;8.246;2022-10-15T11:08:44;1.53;;;1.43;;
10701;SDS011;5402;50.004;8.246;2022-10-15T11:11:20;1.43;;;1.33;;
10701;SDS011;5402;50.004;8.246;2022-10-15T11:13:55;2.20;;;1.33;;
10701;SDS011;5402;50.004;8.246;2022-10-15T11:16:30;2.20;;;1.20;;
10701;SDS011;5402;50.004;8.246;2022-10-15T11:21:56;1.27;;;1.17;;
10701;SDS011;5402;50.004;8.246;2022-10-15T11:24:32;2.77;;;1.17;;
10701;SDS011;5402;50.004;8.246;2022-10-15T11:27:11;2.33;;;1.30;;
10701;SDS011;5402;50.004;8.246;2022-10-15T11:29:50;2.27;;;1.13;;
10701;SDS011;5402;50.004;8.246;2022-10-15T11:32:25;3.00;;;1.37;;
10701;SDS011;5402;50.004;8.246;2022-10-15T11:35:07;2.73;;;1.10;;
10701;SDS011;5402;50.004;8.246;2022-10-15T11:37:43;2.37;;;1.37;;
10701;SDS011;5402;50.004;8.246;2022-10-15T11:40:23;1.50;;;1.20;;
10701;SDS011;5402;50.004;8.246;2022-10-15T11:43:00;1.47;;;1.37;;
10701;SDS011;5402;50.004;8.246;2022-10-15T11:45:45;2.27;;;1.70;;
10701;SDS011;5402;50.004;8.246;2022-10-15T11:48:23;1.40;;;1.30;;
10701;SDS011;5402;50.004;8.246;2022-10-15T11:50:59;3.53;;;1.60;;
10701;SDS011;5402;50.004;8.246;2022-10-15T11:56:17;1.73;;;1.40;;
10701;SDS011;5402;50.004;8.246;2022-10-15T11:58:49;5.47;;;4.07;;
10701;SDS011;5402;50.004;8.246;2022-10-15T12:01:22;2.03;;;1.80;;
10701;SDS011;5402;50.004;8.246;2022-10-15T12:03:55;2.93;;;1.43;;
10701;SDS011;5402;50.004;8.246;2022-10-15T12:06:25;2.47;;;1.37;;
10701;SDS011;5402;50.004;8.246;2022-10-15T12:08:55;1.40;;;1.30;;
10701;SDS011;5402;50.004;8.246;2022-10-15T12:11:27;1.97;;;1.00;;
10701;SDS011;5402;50.004;8.246;2022-10-15T12:14:06;3.50;;;1.13;;
10701;SDS011;5402;50.004;8.246;2022-10-15T12:16:43;2.47;;;1.43;;
10701;SDS011;5402;50.004;8.246;2022-10-15T12:19:18;1.73;;;1.30;;
10701;SDS011;5402;50.004;8.246;2022-10-15T12:21:59;1.83;;;1.00;;
10701;SDS011;5402;50.004;8.246;2022-10-15T12:24:50;2.17;;;1.53;;
10701;SDS011;5402;50.004;8.246;2022-10-15T12:27:23;1.23;;;0.83;;
10701;SDS011;5402;50.004;8.246;2022-10-15T12:32:54;2.10;;;0.80;;
10701;SDS011;5402;50.004;8.246;2022-10-15T12:35:28;0.70;;;0.70;;
10701;SDS011;5402;50.004;8.246;2022-10-15T12:38:07;2.03;;;0.90;;
10701;SDS011;5402;50.004;8.246;2022-10-15T12:40:36;1.60;;;0.70;;
10701;SDS011;5402;50.004;8.246;2022-10-15T12:43:11;0.70;;;0.70;;
10701;SDS011;5402;50.004;8.246;2022-10-15T12:45:40;0.50;;;0.50;;
10701;SDS011;5402;50.004;8.246;2022-10-15T12:48:19;0.57;;;0.57;;
10701;SDS011;5402;50.004;8.246;2022-10-15T12:50:47;0.60;;;0.60;;
10701;SDS011;5402;50.004;8.246;2022-10-15T12:53:29;1.20;;;0.70;;
10701;SDS011;5402;50.004;8.246;2022-10-15T12:56:19;0.60;;;0.60;;
10701;SDS011;5402;50.004;8.246;2022-10-15T12:58:48;1.23;;;0.57;;
10701;SDS011;5402;50.004;8.246;2022-10-15T13:01:26;0.60;;;0.40;;
10701;SDS011;5402;50.004;8.246;2022-10-15T13:03:55;0.40;;;0.40;;
10701;SDS011;5402;50.004;8.246;2022-10-15T13:06:33;0.40;;;0.40;;
10701;SDS011;5402;50.004;8.246;2022-10-15T13:09:05;0.37;;;0.37;;
10701;SDS011;5402;50.004;8.246;2022-10-15T13:11:52;0.50;;;0.50;;
10701;SDS011;5402;50.004;8.246;2022-10-15T13:14:26;0.30;;;0.30;;
10701;SDS011;5402;50.004;8.246;2022-10-15T13:16:56;0.30;;;0.30;;
10701;SDS011;5402;50.004;8.246;2022-10-15T13:19:26;1.83;;;0.57;;
10701;SDS011;5402;50.004;8.246;2022-10-15T13:21:55;0.50;;;0.50;;
10701;SDS011;5402;50.004;8.246;2022-10-15T13:24:24;0.50;;;0.50;;
10701;SDS011;5402;50.004;8.246;2022-10-15T13:26:53;0.50;;;0.30;;
10701;SDS011;5402;50.004;8.246;2022-10-15T13:29:22;0.40;;;0.40;;
10701;SDS011;5402;50.004;8.246;2022-10-15T13:31:49;1.90;;;0.60;;
10701;SDS011;5402;50.004;8.246;2022-10-15T13:34:20;1.40;;;0.40;;
10701;SDS011;5402;50.004;8.246;2022-10-15T13:36:52;0.73;;;0.50;;
10701;SDS011;5402;50.004;8.246;2022-10-15T13:39:23;0.87;;;0.40;;
10701;SDS011;5402;50.004;8.246;2022-10-15T13:42:02;0.40;;;0.40;;
10701;SDS011;5402;50.004;8.246;2022-10-15T13:44:32;0.30;;;0.30;;
10701;SDS011;5402;50.004;8.246;2022-10-15T13:47:00;0.30;;;0.30;;
10701;SDS011;5402;50.004;8.246;2022-10-15T13:49:28;0.40;;;0.40;;
10701;SDS011;5402;50.004;8.246;2022-10-15T13:51:55;1.47;;;1.37;;
10701;SDS011;5402;50.004;8.246;2022-10-15T13:54:23;1.60;;;0.43;;
10701;SDS011;5402;50.004;8.246;2022-10-15T13:56:53;2.40;;;0.50;;
10701;SDS011;5402;50.004;8.246;2022-10-15T13:59:22;0.37;;;0.30;;
10701;SDS011;5402;50.004;8.246;2022-10-15T14:01:51;0.50;;;0.40;;
10701;SDS011;5402;50.004;8.246;2022-10-15T14:04:25;0.50;;;0.50;;
10701;SDS011;5402;50.004;8.246;2022-10-15T14:06:55;0.37;;;0.33;;
10701;SDS011;5402;50.004;8.246;2022-10-15T14:09:26;0.37;;;0.37;;
10701;SDS011;5402;50.004;8.246;2022-10-15T14:11:56;0.77;;;0.40;;
10701;SDS011;5402;50.004;8.246;2022-10-15T14:14:27;0.60;;;0.33;;
10701;SDS011;5402;50.004;8.246;2022-10-15T14:16:56;0.27;;;0.27;;
10701;SDS011;5402;50.004;8.246;2022-10-15T14:19:24;0.30;;;0.30;;
10701;SDS011;5402;50.004;8.246;2022-10-15T14:21:55;0.13;;;0.13;;
10701;SDS011;5402;50.004;8.246;2022-10-15T14:24:23;0.20;;;0.20;;
10701;SDS011;5402;50.004;8.246;2022-10-15T14:26:59;0.23;;;0.23;;
10701;SDS011;5402;50.004;8.246;2022-10-15T14:29:28;0.20;;;0.20;;
10701;SDS011;5402;50.004;8.246;2022-10-15T14:32:02;0.20;;;0.20;;
10701;SDS011;5402;50.004;8.246;2022-10-15T14:34:42;1.03;;;0.30;;
10701;SDS011;5402;50.004;8.246;2022-10-15T14:40:02;0.20;;;0.20;;
10701;SDS011;5402;50.004;8.246;2022-10-15T14:42:37;0.70;;;0.43;;
10701;SDS011;5402;50.004;8.246;2022-10-15T14:45:12;0.43;;;0.40;;
10701;SDS011;5402;50.004;8.246;2022-10-15T14:47:44;1.93;;;0.50;;
10701;SDS011;5402;50.004;8.246;2022-10-15T14:50:13;0.27;;;0.27;;
10701;SDS011;5402;50.004;8.246;2022-10-15T14:52:43;0.93;;;0.40;;
10701;SDS011;5402;50.004;8.246;2022-10-15T14:55:14;0.30;;;0.30;;
10701;SDS011;5402;50.004;8.246;2022-10-15T14:57:50;0.30;;;0.30;;
10701;SDS011;5402;50.004;8.246;2022-10-15T15:00:20;0.33;;;0.33;;
10701;SDS011;5402;50.004;8.246;2022-10-15T15:02:50;0.40;;;0.40;;
10701;SDS011;5402;50.004;8.246;2022-10-15T15:05:20;0.87;;;0.43;;
10701;SDS011;5402;50.004;8.246;2022-10-15T15:07:49;0.37;;;0.37;;
10701;SDS011;5402;50.004;8.246;2022-10-15T15:10:16;0.67;;;0.47;;
10701;SDS011;5402;50.004;8.246;2022-10-15T15:12:44;0.50;;;0.50;;
10701;SDS011;5402;50.004;8.246;2022-10-15T15:15:15;0.13;;;0.13;;
10701;SDS011;5402;50.004;8.246;2022-10-15T15:17:44;0.60;;;0.40;;
10701;SDS011;5402;50.004;8.246;2022-10-15T15:20:12;0.50;;;0.50;;
10701;SDS011;5402;50.004;8.246;2022-10-15T15:22:40;0.40;;;0.40;;
10701;SDS011;5402;50.004;8.246;2022-10-15T15:25:12;0.50;;;0.50;;
10701;SDS011;5402;50.004;8.246;2022-10-15T15:27:40;0.60;;;0.60;;
10701;SDS011;5402;50.004;8.246;2022-10-15T15:30:12;0.93;;;0.93;;
10701;SDS011;5402;50.004;8.246;2022-10-15T15:32:41;0.40;;;0.40;;
10701;SDS011;5402;50.004;8.246;2022-10-15T15:35:12;0.80;;;0.40;;
10701;SDS011;5402;50.004;8.246;2022-10-15T15:37:44;0.50;;;0.50;;